sim
Sign-in with your pilot id or email,
or register
Callsign
Passwort

Schedule Details

Flight Number: DLH108
Departure: Frankfurt Airport (EDDF) at 13:15
Arrival: Munich Airport (EDDM) at 14:10
Route: Lufthansa Passenger Schedule. Enter filed route here before submitting Pirep.

Weather Information
Getting current METAR information for EDDF 230950Z 22009KT 190V250 CAVOK 23/05 Q1008 NOSIG
Getting current METAR information for EDDM 230950Z 25009KT 5000 -SHRA FEW007 FEW015CB BKN025 15/14 Q1010 RESHRA NOSIG

Schedule Frequency

Route Map